sensor_id;sensor_type;location;lat;lon;timestamp;P1;P2;P0
77411;PMS7003;66484;49.968;19.140;2024-03-23T00:52:43;82.50;64.75;43.50
77411;PMS7003;66484;49.968;19.140;2024-03-23T00:54:46;75.50;67.75;46.25
77411;PMS7003;66484;49.968;19.140;2024-03-23T00:56:46;78.00;71.25;44.50
77411;PMS7003;66484;49.968;19.140;2024-03-23T00:58:47;82.00;63.50;39.75
77411;PMS7003;66484;49.968;19.140;2024-03-23T01:00:48;75.50;65.00;43.00
77411;PMS7003;66484;49.968;19.140;2024-03-23T01:02:48;73.50;61.00;39.25
77411;PMS7003;66484;49.968;19.140;2024-03-23T01:04:49;67.75;56.00;36.50
77411;PMS7003;66484;49.968;19.140;2024-03-23T01:06:50;71.00;60.25;37.00
77411;PMS7003;66484;49.968;19.140;2024-03-23T01:08:51;72.00;58.00;37.00
77411;PMS7003;66484;49.968;19.140;2024-03-23T01:12:57;75.75;68.00;42.00
77411;PMS7003;66484;49.968;19.140;2024-03-23T01:14:58;80.50;72.75;44.00
77411;PMS7003;66484;49.968;19.140;2024-03-23T01:16:58;236.50;198.25;102.00
77411;PMS7003;66484;49.968;19.140;2024-03-23T01:18:59;66.50;50.50;33.50
77411;PMS7003;66484;49.968;19.140;2024-03-23T01:21:00;66.00;50.50;32.75
77411;PMS7003;66484;49.968;19.140;2024-03-23T01:23:01;56.75;45.00;29.50
77411;PMS7003;66484;49.968;19.140;2024-03-23T01:25:01;59.75;48.00;31.00
77411;PMS7003;66484;49.968;19.140;2024-03-23T01:27:02;60.50;47.75;31.75
77411;PMS7003;66484;49.968;19.140;2024-03-23T01:29:03;55.33;40.67;14.33
77411;PMS7003;66484;49.968;19.140;2024-03-23T01:31:04;57.00;43.00;26.50
77411;PMS7003;66484;49.968;19.140;2024-03-23T01:33:05;66.50;52.25;32.00
77411;PMS7003;66484;49.968;19.140;2024-03-23T01:35:05;68.50;51.50;34.00
77411;PMS7003;66484;49.968;19.140;2024-03-23T01:37:06;63.75;48.00;29.00
77411;PMS7003;66484;49.968;19.140;2024-03-23T01:39:07;59.00;46.00;30.75
77411;PMS7003;66484;49.968;19.140;2024-03-23T01:41:09;65.50;52.00;34.00
77411;PMS7003;66484;49.968;19.140;2024-03-23T01:43:10;67.75;52.50;34.00
77411;PMS7003;66484;49.968;19.140;2024-03-23T01:45:11;69.00;51.00;34.00
77411;PMS7003;66484;49.968;19.140;2024-03-23T01:47:11;72.75;57.75;37.25
77411;PMS7003;66484;49.968;19.140;2024-03-23T01:49:13;65.75;52.00;34.75
77411;PMS7003;66484;49.968;19.140;2024-03-23T01:51:14;60.00;50.33;33.00
77411;PMS7003;66484;49.968;19.140;2024-03-23T01:53:14;61.50;49.75;31.75
77411;PMS7003;66484;49.968;19.140;2024-03-23T01:55:17;67.50;52.50;34.25
77411;PMS7003;66484;49.968;19.140;2024-03-23T01:57:19;70.50;57.75;36.00
77411;PMS7003;66484;49.968;19.140;2024-03-23T01:59:21;62.50;51.00;32.00
77411;PMS7003;66484;49.968;19.140;2024-03-23T02:01:22;60.25;48.00;32.00
77411;PMS7003;66484;49.968;19.140;2024-03-23T02:03:26;65.00;51.50;33.00
77411;PMS7003;66484;49.968;19.140;2024-03-23T02:05:27;53.00;45.00;29.50
77411;PMS7003;66484;49.968;19.140;2024-03-23T02:07:28;56.75;46.50;30.00
77411;PMS7003;66484;49.968;19.140;2024-03-23T02:09:29;53.00;44.67;29.33
77411;PMS7003;66484;49.968;19.140;2024-03-23T02:11:30;56.25;45.00;30.25
77411;PMS7003;66484;49.968;19.140;2024-03-23T02:13:31;49.00;41.00;28.00
77411;PMS7003;66484;49.968;19.140;2024-03-23T02:15:32;58.00;46.25;30.50
77411;PMS7003;66484;49.968;19.140;2024-03-23T02:17:33;60.25;47.25;31.00
77411;PMS7003;66484;49.968;19.140;2024-03-23T02:19:35;60.00;45.75;30.50
77411;PMS7003;66484;49.968;19.140;2024-03-23T02:21:35;68.00;54.50;35.50
77411;PMS7003;66484;49.968;19.140;2024-03-23T02:23:36;75.50;58.25;38.50
77411;PMS7003;66484;49.968;19.140;2024-03-23T02:25:37;56.25;44.50;29.25
77411;PMS7003;66484;49.968;19.140;2024-03-23T02:27:38;59.75;47.00;30.50
77411;PMS7003;66484;49.968;19.140;2024-03-23T02:29:40;50.00;41.25;28.00
77411;PMS7003;66484;49.968;19.140;2024-03-23T02:31:41;52.25;41.50;26.50
77411;PMS7003;66484;49.968;19.140;2024-03-23T02:33:42;63.00;49.75;31.25
77411;PMS7003;66484;49.968;19.140;2024-03-23T02:35:43;63.75;50.00;32.75
77411;PMS7003;66484;49.968;19.140;2024-03-23T02:37:46;62.75;49.75;31.00
77411;PMS7003;66484;49.968;19.140;2024-03-23T02:39:48;60.00;46.75;29.00
77411;PMS7003;66484;49.968;19.140;2024-03-23T02:41:49;61.75;48.00;31.00
77411;PMS7003;66484;49.968;19.140;2024-03-23T02:43:50;65.25;49.25;33.00
77411;PMS7003;66484;49.968;19.140;2024-03-23T02:45:50;63.75;51.25;34.25
77411;PMS7003;66484;49.968;19.140;2024-03-23T02:47:51;65.50;51.00;34.00
77411;PMS7003;66484;49.968;19.140;2024-03-23T02:49:52;69.00;53.00;34.00
77411;PMS7003;66484;49.968;19.140;2024-03-23T02:51:54;68.75;53.25;35.50
77411;PMS7003;66484;49.968;19.140;2024-03-23T02:53:55;67.00;52.25;35.00
77411;PMS7003;66484;49.968;19.140;2024-03-23T02:55:57;71.75;57.00;37.25
77411;PMS7003;66484;49.968;19.140;2024-03-23T02:57:58;73.25;61.25;38.50
77411;PMS7003;66484;49.968;19.140;2024-03-23T03:00:02;74.25;63.25;36.50
77411;PMS7003;66484;49.968;19.140;2024-03-23T03:02:04;71.00;55.00;34.00
77411;PMS7003;66484;49.968;19.140;2024-03-23T03:04:05;72.75;54.50;35.25
77411;PMS7003;66484;49.968;19.140;2024-03-23T03:06:05;72.00;55.25;36.50
77411;PMS7003;66484;49.968;19.140;2024-03-23T03:08:06;62.75;51.75;36.50
77411;PMS7003;66484;49.968;19.140;2024-03-23T03:10:07;62.50;51.25;32.75
77411;PMS7003;66484;49.968;19.140;2024-03-23T03:12:11;71.00;53.50;34.75
77411;PMS7003;66484;49.968;19.140;2024-03-23T03:14:12;64.00;51.00;33.25
77411;PMS7003;66484;49.968;19.140;2024-03-23T03:16:13;64.50;49.25;31.75
77411;PMS7003;66484;49.968;19.140;2024-03-23T03:18:14;66.25;52.50;34.00
77411;PMS7003;66484;49.968;19.140;2024-03-23T03:20:15;68.50;52.75;33.75
77411;PMS7003;66484;49.968;19.140;2024-03-23T03:22:18;70.25;56.25;35.25
77411;PMS7003;66484;49.968;19.140;2024-03-23T03:24:18;65.00;50.75;31.75
77411;PMS7003;66484;49.968;19.140;2024-03-23T03:26:19;65.75;50.75;32.50
77411;PMS7003;66484;49.968;19.140;2024-03-23T03:28:20;60.50;47.50;32.00
77411;PMS7003;66484;49.968;19.140;2024-03-23T03:30:21;65.75;50.50;33.25
77411;PMS7003;66484;49.968;19.140;2024-03-23T03:32:24;70.25;58.25;35.00
77411;PMS7003;66484;49.968;19.140;2024-03-23T03:34:25;62.75;49.00;33.00
77411;PMS7003;66484;49.968;19.140;2024-03-23T03:36:26;73.00;56.67;36.67
77411;PMS7003;66484;49.968;19.140;2024-03-23T03:38:26;67.50;51.50;33.50
77411;PMS7003;66484;49.968;19.140;2024-03-23T03:40:27;70.00;53.50;35.00
77411;PMS7003;66484;49.968;19.140;2024-03-23T03:42:28;63.00;49.50;31.50
77411;PMS7003;66484;49.968;19.140;2024-03-23T03:44:29;62.75;48.25;31.00
77411;PMS7003;66484;49.968;19.140;2024-03-23T03:46:29;66.50;52.00;33.25
77411;PMS7003;66484;49.968;19.140;2024-03-23T03:48:30;62.33;51.67;33.33
77411;PMS7003;66484;49.968;19.140;2024-03-23T03:50:31;65.00;51.00;33.00
77411;PMS7003;66484;49.968;19.140;2024-03-23T03:52:31;61.25;49.25;30.50
77411;PMS7003;66484;49.968;19.140;2024-03-23T03:54:33;51.00;40.00;27.00
77411;PMS7003;66484;49.968;19.140;2024-03-23T03:56:33;62.75;48.25;31.00
77411;PMS7003;66484;49.968;19.140;2024-03-23T03:58:34;61.75;48.00;32.25
77411;PMS7003;66484;49.968;19.140;2024-03-23T04:00:35;68.50;52.25;34.25
77411;PMS7003;66484;49.968;19.140;2024-03-23T04:02:36;75.25;59.75;37.50
77411;PMS7003;66484;49.968;19.140;2024-03-23T04:04:37;69.75;54.75;36.00
77411;PMS7003;66484;49.968;19.140;2024-03-23T04:06:38;67.25;52.00;34.00
77411;PMS7003;66484;49.968;19.140;2024-03-23T04:08:39;73.25;58.25;34.75
77411;PMS7003;66484;49.968;19.140;2024-03-23T04:10:39;71.25;57.75;41.25
77411;PMS7003;66484;49.968;19.140;2024-03-23T04:12:41;69.25;58.75;36.75
77411;PMS7003;66484;49.968;19.140;2024-03-23T04:14:42;69.00;52.00;34.50
77411;PMS7003;66484;49.968;19.140;2024-03-23T04:16:42;67.25;51.50;34.50
77411;PMS7003;66484;49.968;19.140;2024-03-23T04:18:43;67.75;54.75;36.25
77411;PMS7003;66484;49.968;19.140;2024-03-23T04:20:45;66.50;52.50;33.00
77411;PMS7003;66484;49.968;19.140;2024-03-23T04:22:47;63.50;50.00;32.75
77411;PMS7003;66484;49.968;19.140;2024-03-23T04:24:47;63.00;49.25;31.75
77411;PMS7003;66484;49.968;19.140;2024-03-23T04:26:48;69.00;54.00;35.50
77411;PMS7003;66484;49.968;19.140;2024-03-23T04:28:49;71.50;55.75;35.25
77411;PMS7003;66484;49.968;19.140;2024-03-23T04:30:49;56.50;46.25;29.50
77411;PMS7003;66484;49.968;19.140;2024-03-23T04:32:50;63.00;49.50;31.00
77411;PMS7003;66484;49.968;19.140;2024-03-23T04:34:51;59.75;48.50;31.00
77411;PMS7003;66484;49.968;19.140;2024-03-23T04:36:51;60.00;47.00;31.00
77411;PMS7003;66484;49.968;19.140;2024-03-23T04:38:52;64.25;51.50;32.25
77411;PMS7003;66484;49.968;19.140;2024-03-23T04:40:54;69.50;54.75;33.25
77411;PMS7003;66484;49.968;19.140;2024-03-23T04:42:58;63.50;50.75;33.25
77411;PMS7003;66484;49.968;19.140;2024-03-23T04:44:59;63.00;49.50;31.75
77411;PMS7003;66484;49.968;19.140;2024-03-23T04:47:00;57.75;46.00;31.00
77411;PMS7003;66484;49.968;19.140;2024-03-23T04:49:01;63.50;49.00;32.00
77411;PMS7003;66484;49.968;19.140;2024-03-23T04:51:04;62.75;50.75;34.25
77411;PMS7003;66484;49.968;19.140;2024-03-23T04:53:05;55.25;42.00;27.50
77411;PMS7003;66484;49.968;19.140;2024-03-23T04:55:06;54.75;44.75;29.00
77411;PMS7003;66484;49.968;19.140;2024-03-23T04:57:07;52.50;44.00;26.00
77411;PMS7003;66484;49.968;19.140;2024-03-23T04:59:07;55.25;45.25;28.00
77411;PMS7003;66484;49.968;19.140;2024-03-23T05:01:09;55.75;45.00;28.00
77411;PMS7003;66484;49.968;19.140;2024-03-23T05:03:11;51.00;43.00;28.00
77411;PMS7003;66484;49.968;19.140;2024-03-23T05:05:11;57.50;46.50;28.50
77411;PMS7003;66484;49.968;19.140;2024-03-23T05:07:12;55.00;44.25;28.25
77411;PMS7003;66484;49.968;19.140;2024-03-23T05:09:13;54.00;45.00;28.00
77411;PMS7003;66484;49.968;19.140;2024-03-23T05:11:14;55.50;44.50;28.25
77411;PMS7003;66484;49.968;19.140;2024-03-23T05:13:15;55.75;44.25;29.00
77411;PMS7003;66484;49.968;19.140;2024-03-23T05:15:16;62.50;48.50;30.75
77411;PMS7003;66484;49.968;19.140;2024-03-23T05:17:17;60.25;48.50;31.00
77411;PMS7003;66484;49.968;19.140;2024-03-23T05:19:18;52.50;43.50;29.00
77411;PMS7003;66484;49.968;19.140;2024-03-23T05:21:19;59.50;47.25;30.00
77411;PMS7003;66484;49.968;19.140;2024-03-23T05:23:19;52.75;44.25;30.00
77411;PMS7003;66484;49.968;19.140;2024-03-23T05:25:20;54.75;44.25;29.50
77411;PMS7003;66484;49.968;19.140;2024-03-23T05:27:21;62.50;47.50;30.00
77411;PMS7003;66484;49.968;19.140;2024-03-23T05:29:22;60.25;48.00;32.00
77411;PMS7003;66484;49.968;19.140;2024-03-23T05:31:23;55.50;42.25;26.50
77411;PMS7003;66484;49.968;19.140;2024-03-23T05:33:28;55.75;45.00;29.00
77411;PMS7003;66484;49.968;19.140;2024-03-23T05:35:28;47.25;38.50;26.50
77411;PMS7003;66484;49.968;19.140;2024-03-23T05:37:29;55.00;44.75;28.50
77411;PMS7003;66484;49.968;19.140;2024-03-23T05:39:31;59.75;46.25;29.00
77411;PMS7003;66484;49.968;19.140;2024-03-23T05:41:32;60.25;47.25;30.00
77411;PMS7003;66484;49.968;19.140;2024-03-23T05:43:33;52.50;40.50;27.00
77411;PMS7003;66484;49.968;19.140;2024-03-23T05:45:34;54.25;43.25;29.00
77411;PMS7003;66484;49.968;19.140;2024-03-23T05:47:35;50.00;41.00;26.00
77411;PMS7003;66484;49.968;19.140;2024-03-23T05:49:36;50.50;42.25;27.50
77411;PMS7003;66484;49.968;19.140;2024-03-23T05:51:36;56.00;45.00;30.00
77411;PMS7003;66484;49.968;19.140;2024-03-23T05:53:37;53.00;42.50;28.25
77411;PMS7003;66484;49.968;19.140;2024-03-23T05:55:38;46.33;36.33;26.00
77411;PMS7003;66484;49.968;19.140;2024-03-23T05:57:39;51.33;40.67;25.33
77411;PMS7003;66484;49.968;19.140;2024-03-23T05:59:40;57.00;44.00;28.50
77411;PMS7003;66484;49.968;19.140;2024-03-23T06:01:41;51.33;41.67;25.00
77411;PMS7003;66484;49.968;19.140;2024-03-23T06:03:41;38.75;33.25;20.00
77411;PMS7003;66484;49.968;19.140;2024-03-23T06:05:44;47.75;38.25;26.25
77411;PMS7003;66484;49.968;19.140;2024-03-23T06:07:47;50.75;41.75;28.00
77411;PMS7003;66484;49.968;19.140;2024-03-23T06:09:50;55.33;42.00;27.67
77411;PMS7003;66484;49.968;19.140;2024-03-23T06:11:51;47.67;39.33;26.00
77411;PMS7003;66484;49.968;19.140;2024-03-23T06:13:52;47.33;36.00;22.67
77411;PMS7003;66484;49.968;19.140;2024-03-23T06:15:52;50.00;40.33;27.00
77411;PMS7003;66484;49.968;19.140;2024-03-23T06:17:53;47.67;39.67;29.00
77411;PMS7003;66484;49.968;19.140;2024-03-23T06:19:54;54.33;41.00;27.00
77411;PMS7003;66484;49.968;19.140;2024-03-23T06:21:55;49.00;40.33;27.00
77411;PMS7003;66484;49.968;19.140;2024-03-23T06:23:55;22.67;18.00;7.00
77411;PMS7003;66484;49.968;19.140;2024-03-23T06:25:56;40.33;36.00;22.00
77411;PMS7003;66484;49.968;19.140;2024-03-23T06:27:57;48.67;40.67;26.67
77411;PMS7003;66484;49.968;19.140;2024-03-23T06:29:59;49.00;39.67;26.67
77411;PMS7003;66484;49.968;19.140;2024-03-23T06:32:00;57.33;44.67;30.67
77411;PMS7003;66484;49.968;19.140;2024-03-23T06:34:00;48.33;42.00;28.00
77411;PMS7003;66484;49.968;19.140;2024-03-23T06:36:02;60.75;48.75;31.25
77411;PMS7003;66484;49.968;19.140;2024-03-23T06:38:04;65.33;54.00;34.00
77411;PMS7003;66484;49.968;19.140;2024-03-23T06:40:05;66.33;55.33;36.33
77411;PMS7003;66484;49.968;19.140;2024-03-23T06:42:09;59.25;47.00;30.50
77411;PMS7003;66484;49.968;19.140;2024-03-23T06:44:10;67.67;50.67;34.00
77411;PMS7003;66484;49.968;19.140;2024-03-23T06:46:11;64.75;50.50;32.00
77411;PMS7003;66484;49.968;19.140;2024-03-23T06:48:12;72.00;57.67;37.33
77411;PMS7003;66484;49.968;19.140;2024-03-23T06:50:12;66.67;53.67;34.33
77411;PMS7003;66484;49.968;19.140;2024-03-23T06:52:13;67.75;54.25;36.00
77411;PMS7003;66484;49.968;19.140;2024-03-23T06:54:14;71.00;57.33;36.00
77411;PMS7003;66484;49.968;19.140;2024-03-23T06:56:15;61.67;52.33;36.00
77411;PMS7003;66484;49.968;19.140;2024-03-23T06:58:16;63.00;52.67;32.67
77411;PMS7003;66484;49.968;19.140;2024-03-23T07:00:16;66.67;53.00;34.00
77411;PMS7003;66484;49.968;19.140;2024-03-23T07:02:17;69.33;57.33;37.33
77411;PMS7003;66484;49.968;19.140;2024-03-23T07:04:18;48.33;40.67;26.00
77411;PMS7003;66484;49.968;19.140;2024-03-23T07:06:19;56.67;46.00;29.67
77411;PMS7003;66484;49.968;19.140;2024-03-23T07:08:19;51.00;39.00;25.67
77411;PMS7003;66484;49.968;19.140;2024-03-23T07:10:22;44.00;35.67;24.67
77411;PMS7003;66484;49.968;19.140;2024-03-23T07:12:23;49.67;41.00;27.00
77411;PMS7003;66484;49.968;19.140;2024-03-23T07:14:24;47.33;37.67;26.00
77411;PMS7003;66484;49.968;19.140;2024-03-23T07:16:26;47.67;38.00;25.67
77411;PMS7003;66484;49.968;19.140;2024-03-23T07:18:27;45.00;36.00;25.00
77411;PMS7003;66484;49.968;19.140;2024-03-23T07:20:29;40.00;34.67;23.00
77411;PMS7003;66484;49.968;19.140;2024-03-23T07:22:31;47.00;38.67;25.33
77411;PMS7003;66484;49.968;19.140;2024-03-23T07:24:32;49.00;39.00;25.00
77411;PMS7003;66484;49.968;19.140;2024-03-23T07:26:33;45.00;36.00;23.67
77411;PMS7003;66484;49.968;19.140;2024-03-23T07:28:34;46.33;34.67;23.00
77411;PMS7003;66484;49.968;19.140;2024-03-23T07:30:36;47.00;36.00;23.33
77411;PMS7003;66484;49.968;19.140;2024-03-23T07:32:37;51.67;41.33;27.33
77411;PMS7003;66484;49.968;19.140;2024-03-23T07:34:38;53.00;42.67;27.00
77411;PMS7003;66484;49.968;19.140;2024-03-23T07:36:38;50.00;40.67;26.00
77411;PMS7003;66484;49.968;19.140;2024-03-23T07:38:42;61.67;51.00;35.00
77411;PMS7003;66484;49.968;19.140;2024-03-23T07:40:45;60.00;49.33;35.00
77411;PMS7003;66484;49.968;19.140;2024-03-23T07:42:46;57.33;46.00;28.33
77411;PMS7003;66484;49.968;19.140;2024-03-23T07:44:46;54.33;45.00;27.67
77411;PMS7003;66484;49.968;19.140;2024-03-23T07:46:47;57.67;44.00;27.33
77411;PMS7003;66484;49.968;19.140;2024-03-23T07:48:48;54.00;43.67;28.00
77411;PMS7003;66484;49.968;19.140;2024-03-23T07:50:56;52.33;42.00;25.00
77411;PMS7003;66484;49.968;19.140;2024-03-23T07:52:58;53.33;42.33;28.00
77411;PMS7003;66484;49.968;19.140;2024-03-23T07:54:59;53.33;41.33;27.00
77411;PMS7003;66484;49.968;19.140;2024-03-23T07:56:59;54.67;44.67;28.33
77411;PMS7003;66484;49.968;19.140;2024-03-23T07:59:00;60.67;48.33;31.00
77411;PMS7003;66484;49.968;19.140;2024-03-23T08:01:04;60.00;47.33;29.33
77411;PMS7003;66484;49.968;19.140;2024-03-23T08:03:08;56.00;43.67;28.33
77411;PMS7003;66484;49.968;19.140;2024-03-23T08:05:09;55.00;42.67;27.00
77411;PMS7003;66484;49.968;19.140;2024-03-23T08:07:09;55.67;44.33;26.67
77411;PMS7003;66484;49.968;19.140;2024-03-23T08:09:10;53.33;44.33;28.33
77411;PMS7003;66484;49.968;19.140;2024-03-23T08:11:11;53.33;42.00;28.67
77411;PMS7003;66484;49.968;19.140;2024-03-23T08:13:13;51.00;42.67;28.00
77411;PMS7003;66484;49.968;19.140;2024-03-23T08:15:13;55.00;43.33;28.00
77411;PMS7003;66484;49.968;19.140;2024-03-23T08:17:14;55.00;44.00;29.00
77411;PMS7003;66484;49.968;19.140;2024-03-23T08:19:15;56.33;44.00;25.67
77411;PMS7003;66484;49.968;19.140;2024-03-23T08:21:16;56.67;45.33;30.67
77411;PMS7003;66484;49.968;19.140;2024-03-23T08:23:16;55.67;41.67;27.00
77411;PMS7003;66484;49.968;19.140;2024-03-23T08:25:17;54.00;44.00;28.00
77411;PMS7003;66484;49.968;19.140;2024-03-23T08:27:18;54.33;45.00;28.67
77411;PMS7003;66484;49.968;19.140;2024-03-23T08:29:19;50.00;41.33;27.00
77411;PMS7003;66484;49.968;19.140;2024-03-23T08:31:19;49.67;39.00;25.67
77411;PMS7003;66484;49.968;19.140;2024-03-23T08:33:20;46.67;38.33;25.00
77411;PMS7003;66484;49.968;19.140;2024-03-23T08:35:22;41.67;36.00;25.00
77411;PMS7003;66484;49.968;19.140;2024-03-23T08:37:23;41.67;35.00;24.67
77411;PMS7003;66484;49.968;19.140;2024-03-23T08:39:25;36.00;32.00;21.67
77411;PMS7003;66484;49.968;19.140;2024-03-23T08:41:25;39.00;35.00;23.00
77411;PMS7003;66484;49.968;19.140;2024-03-23T08:43:26;33.33;31.00;21.33
77411;PMS7003;66484;49.968;19.140;2024-03-23T08:45:27;28.00;26.75;20.75
77411;PMS7003;66484;49.968;19.140;2024-03-23T08:47:28;31.50;26.75;17.75
77411;PMS7003;66484;49.968;19.140;2024-03-23T08:49:28;29.00;27.50;19.75
77411;PMS7003;66484;49.968;19.140;2024-03-23T08:51:29;24.67;24.67;14.33
77411;PMS7003;66484;49.968;19.140;2024-03-23T08:53:30;26.00;24.25;15.25
77411;PMS7003;66484;49.968;19.140;2024-03-23T08:55:31;32.75;29.00;20.00
77411;PMS7003;66484;49.968;19.140;2024-03-23T08:57:32;35.67;30.67;19.33
77411;PMS7003;66484;49.968;19.140;2024-03-23T08:59:33;30.25;25.00;18.00
77411;PMS7003;66484;49.968;19.140;2024-03-23T09:01:33;33.00;29.25;19.75
77411;PMS7003;66484;49.968;19.140;2024-03-23T09:03:34;27.75;25.50;18.25
77411;PMS7003;66484;49.968;19.140;2024-03-23T09:05:39;20.50;18.25;10.00
77411;PMS7003;66484;49.968;19.140;2024-03-23T09:07:40;29.75;27.50;16.75
77411;PMS7003;66484;49.968;19.140;2024-03-23T09:09:41;21.75;19.75;14.75
77411;PMS7003;66484;49.968;19.140;2024-03-23T09:11:42;19.75;18.25;14.00
77411;PMS7003;66484;49.968;19.140;2024-03-23T09:13:43;14.25;11.25;7.50
77411;PMS7003;66484;49.968;19.140;2024-03-23T09:15:47;10.00;10.00;7.25
77411;PMS7003;66484;49.968;19.140;2024-03-23T09:17:51;10.75;9.75;7.25
77411;PMS7003;66484;49.968;19.140;2024-03-23T09:19:52;14.50;13.00;8.75
77411;PMS7003;66484;49.968;19.140;2024-03-23T09:21:53;10.75;10.75;8.50
77411;PMS7003;66484;49.968;19.140;2024-03-23T09:23:54;10.25;9.25;7.00
77411;PMS7003;66484;49.968;19.140;2024-03-23T09:25:55;12.50;12.50;8.00
77411;PMS7003;66484;49.968;19.140;2024-03-23T09:27:56;14.25;13.25;10.25
77411;PMS7003;66484;49.968;19.140;2024-03-23T09:29:57;9.25;9.00;7.50
77411;PMS7003;66484;49.968;19.140;2024-03-23T09:31:57;22.25;17.50;10.50
77411;PMS7003;66484;49.968;19.140;2024-03-23T09:33:58;9.75;9.75;8.00
77411;PMS7003;66484;49.968;19.140;2024-03-23T09:36:02;15.50;11.75;8.00
77411;PMS7003;66484;49.968;19.140;2024-03-23T09:38:04;12.00;12.00;9.25
77411;PMS7003;66484;49.968;19.140;2024-03-23T09:40:07;11.00;9.75;7.50
77411;PMS7003;66484;49.968;19.140;2024-03-23T09:42:10;12.50;10.75;7.50
77411;PMS7003;66484;49.968;19.140;2024-03-23T09:44:11;6.75;5.75;4.00
77411;PMS7003;66484;49.968;19.140;2024-03-23T09:46:12;12.25;12.25;8.75
77411;PMS7003;66484;49.968;19.140;2024-03-23T09:48:13;10.00;9.50;7.75
77411;PMS7003;66484;49.968;19.140;2024-03-23T09:50:13;13.75;13.75;8.00
77411;PMS7003;66484;49.968;19.140;2024-03-23T09:52:14;12.25;12.25;9.25
77411;PMS7003;66484;49.968;19.140;2024-03-23T09:54:15;9.25;8.50;6.50
77411;PMS7003;66484;49.968;19.140;2024-03-23T09:56:16;10.50;10.50;7.75
77411;PMS7003;66484;49.968;19.140;2024-03-23T09:58:17;8.25;6.50;5.75
77411;PMS7003;66484;49.968;19.140;2024-03-23T10:00:19;8.25;8.25;6.75
77411;PMS7003;66484;49.968;19.140;2024-03-23T10:02:19;14.75;7.25;5.00
77411;PMS7003;66484;49.968;19.140;2024-03-23T10:04:40;11.25;8.00;5.25
77411;PMS7003;66484;49.968;19.140;2024-03-23T10:06:42;8.75;7.50;6.00
77411;PMS7003;66484;49.968;19.140;2024-03-23T10:08:42;9.75;9.50;6.00
77411;PMS7003;66484;49.968;19.140;2024-03-23T10:10:44;12.25;9.00;6.50
77411;PMS7003;66484;49.968;19.140;2024-03-23T10:12:46;8.75;8.75;5.25
77411;PMS7003;66484;49.968;19.140;2024-03-23T10:14:48;9.50;8.00;6.00
77411;PMS7003;66484;49.968;19.140;2024-03-23T10:16:49;6.50;6.50;4.50
77411;PMS7003;66484;49.968;19.140;2024-03-23T10:18:50;9.25;9.00;6.00
77411;PMS7003;66484;49.968;19.140;2024-03-23T10:20:52;12.00;11.00;8.00
77411;PMS7003;66484;49.968;19.140;2024-03-23T10:23:09;8.50;7.25;6.25
77411;PMS7003;66484;49.968;19.140;2024-03-23T10:25:17;8.75;8.25;5.50
77411;PMS7003;66484;49.968;19.140;2024-03-23T10:27:18;9.25;8.75;6.00
77411;PMS7003;66484;49.968;19.140;2024-03-23T10:29:20;9.75;8.75;6.25
77411;PMS7003;66484;49.968;19.140;2024-03-23T10:31:21;7.00;6.25;5.75
77411;PMS7003;66484;49.968;19.140;2024-03-23T10:33:22;9.00;9.00;6.75
77411;PMS7003;66484;49.968;19.140;2024-03-23T10:35:23;4.50;4.50;2.75
77411;PMS7003;66484;49.968;19.140;2024-03-23T10:37:24;10.75;9.75;7.25
77411;PMS7003;66484;49.968;19.140;2024-03-23T10:39:25;10.00;10.00;8.00
77411;PMS7003;66484;49.968;19.140;2024-03-23T10:41:27;9.25;9.00;7.00
77411;PMS7003;66484;49.968;19.140;2024-03-23T10:43:30;9.25;9.25;7.50
77411;PMS7003;66484;49.968;19.140;2024-03-23T10:45:33;9.50;7.50;6.25
77411;PMS7003;66484;49.968;19.140;2024-03-23T10:47:35;13.00;13.00;8.25
77411;PMS7003;66484;49.968;19.140;2024-03-23T10:49:40;8.75;7.50;7.00
77411;PMS7003;66484;49.968;19.140;2024-03-23T10:51:41;9.50;8.75;7.50
77411;PMS7003;66484;49.968;19.140;2024-03-23T10:53:42;9.50;9.50;8.00
77411;PMS7003;66484;49.968;19.140;2024-03-23T10:55:43;12.00;9.50;7.00
77411;PMS7003;66484;49.968;19.140;2024-03-23T10:57:45;9.00;7.75;6.25
77411;PMS7003;66484;49.968;19.140;2024-03-23T10:59:50;7.50;6.75;5.75
77411;PMS7003;66484;49.968;19.140;2024-03-23T11:01:58;7.50;7.50;6.75
77411;PMS7003;66484;49.968;19.140;2024-03-23T11:03:59;9.75;8.50;7.00
77411;PMS7003;66484;49.968;19.140;2024-03-23T11:06:00;8.50;8.50;6.00
77411;PMS7003;66484;49.968;19.140;2024-03-23T11:08:01;10.00;10.00;9.00
77411;PMS7003;66484;49.968;19.140;2024-03-23T11:10:02;7.50;7.50;5.75
77411;PMS7003;66484;49.968;19.140;2024-03-23T11:12:30;10.50;10.50;9.25
77411;PMS7003;66484;49.968;19.140;2024-03-23T11:14:35;11.75;10.00;7.25
77411;PMS7003;66484;49.968;19.140;2024-03-23T11:16:36;8.50;7.25;5.25
77411;PMS7003;66484;49.968;19.140;2024-03-23T11:18:39;9.00;9.00;7.00
77411;PMS7003;66484;49.968;19.140;2024-03-23T11:20:41;10.00;8.00;7.00
77411;PMS7003;66484;49.968;19.140;2024-03-23T11:24:49;6.75;6.75;5.00
77411;PMS7003;66484;49.968;19.140;2024-03-23T11:26:50;11.25;9.50;7.25
77411;PMS7003;66484;49.968;19.140;2024-03-23T11:29:08;6.25;6.25;4.25
77411;PMS7003;66484;49.968;19.140;2024-03-23T11:31:10;8.50;7.00;5.00
77411;PMS7003;66484;49.968;19.140;2024-03-23T11:33:11;7.25;7.25;6.25
77411;PMS7003;66484;49.968;19.140;2024-03-23T11:35:31;10.50;9.75;6.75
77411;PMS7003;66484;49.968;19.140;2024-03-23T11:37:36;10.50;8.00;6.00
77411;PMS7003;66484;49.968;19.140;2024-03-23T11:39:37;13.25;11.25;7.75
77411;PMS7003;66484;49.968;19.140;2024-03-23T11:41:44;5.50;5.50;4.75
77411;PMS7003;66484;49.968;19.140;2024-03-23T11:43:48;7.75;7.75;6.00
77411;PMS7003;66484;49.968;19.140;2024-03-23T11:45:50;8.00;7.75;7.00
77411;PMS7003;66484;49.968;19.140;2024-03-23T11:48:03;7.75;7.00;6.00
77411;PMS7003;66484;49.968;19.140;2024-03-23T11:50:04;8.00;8.00;6.25
77411;PMS7003;66484;49.968;19.140;2024-03-23T11:52:05;6.50;6.50;5.25
77411;PMS7003;66484;49.968;19.140;2024-03-23T11:54:09;6.50;6.50;4.75
77411;PMS7003;66484;49.968;19.140;2024-03-23T11:56:09;6.00;6.00;5.00
77411;PMS7003;66484;49.968;19.140;2024-03-23T11:58:10;6.00;6.00;4.00
77411;PMS7003;66484;49.968;19.140;2024-03-23T12:00:21;6.00;6.00;4.00
77411;PMS7003;66484;49.968;19.140;2024-03-23T12:02:22;6.00;4.50;4.00
77411;PMS7003;66484;49.968;19.140;2024-03-23T12:04:29;4.75;4.75;4.50
77411;PMS7003;66484;49.968;19.140;2024-03-23T12:06:30;6.50;6.00;4.00
77411;PMS7003;66484;49.968;19.140;2024-03-23T12:08:33;9.50;8.00;6.50
77411;PMS7003;66484;49.968;19.140;2024-03-23T12:10:35;5.25;4.25;4.25
77411;PMS7003;66484;49.968;19.140;2024-03-23T12:12:36;5.00;5.00;4.00
77411;PMS7003;66484;49.968;19.140;2024-03-23T12:14:37;3.75;3.75;2.25